Terminal Aerodrome Forecast
Issued by NWS

Home | Current Version | Previous Version | Text Only | Print | Product List | Glossary On
Versions: 1 2 3 4 5 6 7 8 9 10 11 12 13 14 15 16 17 18
000
FTUS43 KJKL 260500
TAFSME
TAF
KSME 260533Z 2606/2706 00000KT 1/2SM FG BKN004
      TEMPO 2610/2613 4SM BR SCT010
     FM261300 VRB05KT P6SM SKC=

USA.gov is the U.S. government's official web portal to all federal, state and local government web resources and services.